createdAt,value
2022-10-31T00:01:14.298Z,10.40
2022-10-31T00:03:42.532Z,10.40
2022-10-31T00:06:10.863Z,10.30
2022-10-31T00:08:39.135Z,10.30
2022-10-31T00:11:11.291Z,10.30
2022-10-31T00:13:39.627Z,10.20
2022-10-31T00:16:16.726Z,10.20
2022-10-31T00:18:44.882Z,10.10
2022-10-31T00:21:13.089Z,10.10
2022-10-31T00:23:41.266Z,10.10
2022-10-31T00:26:09.423Z,10.10
2022-10-31T00:28:37.783Z,10.10
2022-10-31T00:31:07.816Z,10.10
2022-10-31T00:33:38.636Z,10.00
2022-10-31T00:36:08.495Z,10.00
2022-10-31T00:38:36.694Z,10.00
2022-10-31T00:41:04.949Z,9.90
2022-10-31T00:43:33.289Z,9.90
2022-10-31T00:46:01.521Z,9.80
2022-10-31T00:48:30.948Z,9.80
2022-10-31T00:51:00.537Z,9.70
2022-10-31T00:53:28.970Z,9.70
2022-10-31T00:55:57.319Z,9.70
2022-10-31T00:58:25.644Z,9.70
2022-10-31T01:00:56.860Z,9.70
2022-10-31T01:03:26.161Z,9.70
2022-10-31T01:06:01.124Z,9.70
2022-10-31T01:08:30.035Z,9.60
2022-10-31T01:11:03.576Z,9.60
2022-10-31T01:13:32.012Z,9.60
2022-10-31T01:16:01.496Z,9.60
2022-10-31T01:18:30.127Z,9.60
2022-10-31T01:21:06.017Z,9.60
2022-10-31T01:23:34.517Z,9.60
2022-10-31T01:26:08.656Z,9.60
2022-10-31T01:28:38.088Z,9.50
2022-10-31T01:31:08.529Z,9.50
2022-10-31T01:33:37.782Z,9.40
2022-10-31T01:36:17.269Z,9.40
2022-10-31T01:38:45.487Z,9.30
2022-10-31T01:41:15.756Z,9.30
2022-10-31T01:43:45.756Z,9.20
2022-10-31T01:46:14.557Z,9.20
2022-10-31T01:48:43.710Z,9.20
2022-10-31T01:51:17.027Z,9.10
2022-10-31T01:53:46.685Z,9.20
2022-10-31T01:56:16.691Z,9.20
2022-10-31T01:58:46.260Z,9.20
2022-10-31T02:01:19.883Z,9.30
2022-10-31T02:03:49.637Z,9.40
2022-10-31T02:06:29.850Z,9.50
2022-10-31T02:09:01.460Z,9.60
2022-10-31T02:11:30.561Z,9.70
2022-10-31T02:14:00.210Z,9.80
2022-10-31T02:16:28.388Z,9.90
2022-10-31T02:18:57.910Z,10.00
2022-10-31T02:21:35.368Z,10.00
2022-10-31T02:24:46.665Z,10.00
2022-10-31T02:27:49.703Z,10.00
2022-10-31T02:30:20.607Z,10.00
2022-10-31T02:33:14.095Z,9.90
2022-10-31T02:35:57.883Z,9.80
2022-10-31T02:38:41.167Z,9.60
2022-10-31T02:41:20.964Z,9.50
2022-10-31T02:44:03.136Z,9.40
2022-10-31T02:46:36.389Z,9.30
2022-10-31T02:49:12.476Z,9.20
2022-10-31T02:51:41.855Z,9.10
2022-10-31T02:54:20.988Z,9.10
2022-10-31T02:56:57.076Z,9.00
2022-10-31T02:59:26.092Z,8.90
2022-10-31T03:02:14.001Z,8.90
2022-10-31T03:05:18.090Z,9.00
2022-10-31T03:07:56.934Z,8.90
2022-10-31T03:10:37.783Z,8.90
2022-10-31T03:13:14.607Z,8.90
2022-10-31T03:15:47.034Z,8.90
2022-10-31T03:18:22.495Z,8.90
2022-10-31T03:20:56.516Z,8.90
2022-10-31T03:23:27.463Z,8.90
2022-10-31T03:25:56.582Z,8.90
2022-10-31T03:28:32.579Z,8.90
2022-10-31T03:31:03.518Z,8.90
2022-10-31T03:33:38.920Z,8.90
2022-10-31T03:36:10.347Z,8.80
2022-10-31T03:38:43.185Z,8.80
2022-10-31T03:41:16.014Z,8.70
2022-10-31T03:43:53.187Z,8.70
2022-10-31T03:46:22.054Z,8.70
2022-10-31T03:48:52.176Z,8.70
2022-10-31T03:51:28.702Z,8.70
2022-10-31T03:54:04.628Z,8.70
2022-10-31T03:56:37.492Z,8.70
2022-10-31T03:59:11.087Z,8.70
2022-10-31T04:01:45.132Z,8.70
2022-10-31T04:04:13.574Z,8.60
2022-10-31T04:06:44.701Z,8.60
2022-10-31T04:09:16.506Z,8.60
2022-10-31T04:11:49.600Z,8.60
2022-10-31T04:14:58.195Z,8.60
2022-10-31T04:17:31.691Z,8.50
2022-10-31T04:20:02.038Z,8.40
2022-10-31T04:22:31.155Z,8.40
2022-10-31T04:25:00.931Z,8.40
2022-10-31T04:27:29.792Z,8.30
2022-10-31T04:29:58.028Z,8.30
2022-10-31T04:32:26.389Z,8.30
2022-10-31T04:34:56.972Z,8.30
2022-10-31T04:37:25.256Z,8.20
2022-10-31T04:39:53.448Z,8.20
2022-10-31T04:42:48.817Z,8.10
2022-10-31T04:45:20.227Z,8.10
2022-10-31T04:47:52.444Z,8.00
2022-10-31T04:50:20.660Z,8.00
2022-10-31T04:52:49.687Z,8.10
2022-10-31T04:55:22.294Z,8.10
2022-10-31T04:57:52.122Z,8.00
2022-10-31T05:00:23.711Z,8.00
2022-10-31T05:02:54.130Z,8.00
2022-10-31T05:05:25.572Z,8.00
2022-10-31T05:07:54.379Z,7.90
2022-10-31T05:10:27.295Z,7.90
2022-10-31T05:13:00.817Z,7.90
2022-10-31T05:15:47.672Z,7.90
2022-10-31T05:18:36.044Z,8.00
2022-10-31T05:21:22.956Z,8.00
2022-10-31T05:23:57.067Z,8.10
2022-10-31T05:26:26.776Z,8.10
2022-10-31T05:28:57.787Z,8.20
2022-10-31T05:31:25.962Z,8.20
2022-10-31T05:33:56.825Z,8.20
2022-10-31T05:36:43.694Z,8.30
2022-10-31T05:39:24.210Z,8.20
2022-10-31T05:41:56.891Z,8.20
2022-10-31T05:44:29.709Z,8.20
2022-10-31T05:47:23.934Z,8.20
2022-10-31T05:49:57.928Z,8.30
2022-10-31T05:52:44.769Z,8.30
2022-10-31T05:55:23.048Z,8.30
2022-10-31T05:58:05.052Z,8.30
2022-10-31T06:00:36.338Z,8.40
2022-10-31T06:03:10.390Z,8.40
2022-10-31T06:06:01.755Z,8.50
2022-10-31T06:08:39.329Z,8.60
2022-10-31T06:11:12.463Z,8.70
2022-10-31T06:14:03.550Z,8.70
2022-10-31T06:16:53.438Z,8.80
2022-10-31T06:19:40.549Z,8.90
2022-10-31T06:22:12.462Z,8.90
2022-10-31T06:24:41.353Z,8.90
2022-10-31T06:27:28.424Z,8.80
2022-10-31T06:29:57.467Z,8.80
2022-10-31T06:32:34.124Z,8.80
2022-10-31T06:35:02.523Z,8.80
2022-10-31T06:37:30.788Z,8.80
2022-10-31T06:40:06.589Z,8.80
2022-10-31T06:42:49.233Z,8.90
2022-10-31T06:45:17.488Z,8.90
2022-10-31T06:48:17.566Z,9.00
2022-10-31T06:51:12.235Z,9.10
2022-10-31T06:53:41.784Z,9.30
2022-10-31T06:56:12.532Z,9.40
2022-10-31T06:58:46.796Z,9.50
2022-10-31T07:01:15.729Z,9.60
2022-10-31T07:03:45.325Z,9.70
2022-10-31T07:06:13.519Z,9.90
2022-10-31T07:08:42.023Z,9.90
2022-10-31T07:11:10.204Z,10.00
2022-10-31T07:13:40.639Z,10.10
2022-10-31T07:16:12.889Z,10.20
2022-10-31T07:18:41.931Z,10.30
2022-10-31T07:21:12.348Z,10.40
2022-10-31T07:23:41.516Z,10.50
2022-10-31T07:26:32.649Z,10.70
2022-10-31T07:29:00.985Z,10.90
2022-10-31T07:31:30.115Z,11.00
2022-10-31T07:34:03.879Z,11.10
2022-10-31T07:36:52.968Z,11.20
2022-10-31T07:39:21.816Z,11.40
2022-10-31T07:41:50.017Z,11.50
2022-10-31T07:44:20.803Z,11.60
2022-10-31T07:47:11.996Z,11.70
2022-10-31T07:49:58.749Z,11.80
2022-10-31T07:52:47.243Z,11.90
2022-10-31T07:55:40.739Z,12.00
2022-10-31T07:58:11.547Z,12.20
2022-10-31T08:00:42.949Z,12.30
2022-10-31T08:03:14.398Z,12.40
2022-10-31T08:06:08.731Z,12.50
2022-10-31T08:09:00.900Z,12.70
2022-10-31T08:11:29.060Z,12.90
2022-10-31T08:13:57.336Z,13.00
2022-10-31T08:16:25.660Z,13.20
2022-10-31T08:18:58.858Z,13.30
2022-10-31T08:21:27.093Z,13.40
2022-10-31T08:23:55.220Z,13.60
2022-10-31T08:26:27.308Z,13.80
2022-10-31T08:28:57.490Z,14.00
2022-10-31T08:31:33.797Z,14.10
2022-10-31T08:34:21.819Z,14.20
2022-10-31T08:37:08.887Z,14.40
2022-10-31T08:39:47.696Z,14.50
2022-10-31T08:42:17.399Z,14.70
2022-10-31T08:44:45.755Z,14.80
2022-10-31T08:47:14.890Z,14.80
2022-10-31T08:49:43.067Z,14.80
2022-10-31T08:52:14.402Z,14.70
2022-10-31T08:54:43.443Z,14.70
2022-10-31T08:57:31.574Z,14.70
2022-10-31T09:00:00.999Z,14.70
2022-10-31T09:02:49.405Z,14.70
2022-10-31T09:05:17.641Z,14.60
2022-10-31T09:07:45.863Z,14.70
2022-10-31T09:10:14.243Z,14.70
2022-10-31T09:12:44.797Z,14.60
2022-10-31T09:15:32.801Z,14.70
2022-10-31T09:18:16.415Z,14.80
2022-10-31T09:21:00.760Z,14.80
2022-10-31T09:23:32.024Z,14.90
2022-10-31T09:26:03.207Z,15.10
2022-10-31T09:28:51.454Z,15.30
2022-10-31T09:31:19.971Z,15.50
2022-10-31T09:34:01.449Z,15.60
2022-10-31T09:36:39.143Z,15.80
2022-10-31T09:39:12.047Z,16.00
2022-10-31T09:41:56.346Z,16.20
2022-10-31T09:44:30.702Z,16.50
2022-10-31T09:47:07.097Z,16.70
2022-10-31T09:49:49.779Z,16.90
2022-10-31T09:52:23.981Z,17.10
2022-10-31T09:54:56.009Z,17.40
2022-10-31T09:57:29.647Z,17.60
2022-10-31T10:00:00.600Z,17.70
2022-10-31T10:02:35.315Z,17.80
2022-10-31T10:05:05.607Z,17.80
2022-10-31T10:07:47.295Z,17.90
2022-10-31T10:10:42.895Z,18.00
2022-10-31T10:14:03.394Z,18.20
2022-10-31T10:16:57.447Z,18.50
2022-10-31T10:19:43.286Z,18.80
2022-10-31T10:22:16.700Z,19.00
2022-10-31T10:25:03.095Z,19.20
2022-10-31T10:27:43.997Z,19.30
2022-10-31T10:30:17.485Z,19.50
2022-10-31T10:32:52.189Z,19.60
2022-10-31T10:35:26.604Z,19.80
2022-10-31T10:38:00.841Z,19.90
2022-10-31T10:40:30.526Z,20.10
2022-10-31T10:43:22.007Z,20.10
2022-10-31T10:46:13.020Z,20.20
2022-10-31T10:48:46.620Z,20.30
2022-10-31T10:51:47.006Z,20.40
2022-10-31T10:54:31.089Z,20.50
2022-10-31T10:57:08.199Z,20.50
2022-10-31T10:59:37.092Z,20.60
2022-10-31T11:02:17.536Z,20.60
2022-10-31T11:04:49.526Z,20.70
2022-10-31T11:07:17.758Z,20.70
2022-10-31T11:09:47.360Z,20.80
2022-10-31T11:12:22.927Z,20.80
2022-10-31T11:14:54.465Z,20.80
2022-10-31T11:17:31.711Z,20.90
2022-10-31T11:20:06.743Z,20.80
2022-10-31T11:22:34.856Z,20.80
2022-10-31T11:25:03.062Z,20.90
2022-10-31T11:27:31.247Z,20.90
2022-10-31T11:30:07.617Z,20.80
2022-10-31T11:32:35.975Z,20.70
2022-10-31T11:35:14.851Z,20.50
2022-10-31T11:37:45.893Z,20.50
2022-10-31T11:40:20.252Z,20.50
2022-10-31T11:42:49.208Z,20.50
2022-10-31T11:45:19.879Z,20.60
2022-10-31T11:47:55.301Z,20.50
2022-10-31T11:50:35.287Z,20.40
2022-10-31T11:53:05.118Z,20.30
2022-10-31T11:55:35.771Z,20.20
2022-10-31T11:58:05.383Z,20.20
2022-10-31T12:00:35.480Z,20.20
2022-10-31T12:03:16.123Z,20.20
2022-10-31T12:05:47.875Z,20.30
2022-10-31T12:08:16.203Z,20.50
2022-10-31T12:11:03.384Z,20.50
2022-10-31T12:13:36.335Z,20.60
2022-10-31T12:16:14.525Z,20.70
2022-10-31T12:19:02.527Z,20.70
2022-10-31T12:21:43.413Z,20.80
2022-10-31T12:24:24.504Z,20.80
2022-10-31T12:27:03.112Z,20.90
2022-10-31T12:29:44.942Z,21.00
2022-10-31T12:32:25.996Z,21.10
2022-10-31T12:35:08.281Z,21.20
2022-10-31T12:37:50.834Z,21.30
2022-10-31T12:40:35.590Z,21.30
2022-10-31T12:43:16.365Z,21.40
2022-10-31T12:45:55.518Z,21.40
2022-10-31T12:48:55.474Z,21.50
2022-10-31T12:51:37.153Z,21.60
2022-10-31T12:54:31.902Z,21.70
2022-10-31T12:57:06.503Z,21.80
2022-10-31T12:59:38.680Z,21.90
2022-10-31T13:02:18.964Z,22.00
2022-10-31T13:04:52.224Z,22.00
2022-10-31T13:07:30.823Z,22.00
2022-10-31T13:10:04.232Z,21.90
2022-10-31T13:12:37.316Z,21.70
2022-10-31T13:15:14.855Z,21.70
2022-10-31T13:17:48.129Z,21.50
2022-10-31T13:20:22.920Z,21.40
2022-10-31T13:22:55.256Z,21.30
2022-10-31T13:25:27.631Z,21.20
2022-10-31T13:28:00.752Z,21.00
2022-10-31T13:30:31.799Z,20.80
2022-10-31T13:33:04.190Z,20.70
2022-10-31T13:35:45.703Z,20.60
2022-10-31T13:38:23.130Z,20.50
2022-10-31T13:40:58.338Z,20.40
2022-10-31T13:43:33.947Z,20.30
2022-10-31T13:46:02.174Z,20.20
2022-10-31T13:48:42.058Z,20.10
2022-10-31T13:51:12.405Z,20.10
2022-10-31T13:53:46.215Z,20.00
2022-10-31T13:56:24.506Z,20.00
2022-10-31T13:59:18.119Z,19.90
2022-10-31T14:01:56.117Z,19.90
2022-10-31T14:04:26.998Z,19.90
2022-10-31T14:07:00.810Z,19.80
2022-10-31T14:09:32.652Z,19.90
2022-10-31T14:12:07.005Z,19.80
2022-10-31T14:14:54.693Z,19.80
2022-10-31T14:17:25.913Z,19.80
2022-10-31T14:20:20.644Z,19.70
2022-10-31T14:22:48.916Z,19.80
2022-10-31T14:25:31.610Z,19.70
2022-10-31T14:28:03.388Z,19.70
2022-10-31T14:30:32.905Z,19.60
2022-10-31T14:33:03.168Z,19.50
2022-10-31T14:35:51.736Z,19.50
2022-10-31T14:38:38.346Z,19.40
2022-10-31T14:41:24.664Z,19.30
2022-10-31T14:44:37.027Z,19.20
2022-10-31T14:47:14.511Z,19.10
2022-10-31T14:49:57.818Z,19.00
2022-10-31T14:52:26.314Z,18.90
2022-10-31T14:54:57.669Z,18.80
2022-10-31T14:57:30.536Z,18.70
2022-10-31T15:00:05.192Z,18.60
2022-10-31T15:02:38.072Z,18.50
2022-10-31T15:05:10.704Z,18.40
2022-10-31T15:07:50.107Z,18.30
2022-10-31T15:10:24.521Z,18.30
2022-10-31T15:12:52.673Z,18.10
2022-10-31T15:15:24.540Z,18.00
2022-10-31T15:17:56.137Z,17.90
2022-10-31T15:20:27.164Z,17.80
2022-10-31T15:22:58.445Z,17.70
2022-10-31T15:25:29.411Z,17.60
2022-10-31T15:27:57.572Z,17.50
2022-10-31T15:30:29.218Z,17.40
2022-10-31T15:32:59.153Z,17.30
2022-10-31T15:35:29.791Z,17.30
2022-10-31T15:38:00.115Z,17.30
2022-10-31T15:40:29.963Z,17.20
2022-10-31T15:43:01.276Z,17.10
2022-10-31T15:45:32.183Z,17.00
2022-10-31T15:48:02.832Z,16.90
2022-10-31T15:50:34.093Z,16.80
2022-10-31T15:53:03.939Z,16.70
2022-10-31T15:55:49.813Z,16.60
2022-10-31T15:58:19.374Z,16.40
2022-10-31T16:00:59.701Z,16.30
2022-10-31T16:03:29.851Z,16.20
2022-10-31T16:05:59.780Z,16.10
2022-10-31T16:08:35.361Z,16.00
2022-10-31T16:11:18.935Z,15.90
2022-10-31T16:13:57.900Z,15.90
2022-10-31T16:16:35.080Z,15.90
2022-10-31T16:19:06.402Z,15.90
2022-10-31T16:21:37.049Z,15.80
2022-10-31T16:24:14.712Z,15.80
2022-10-31T16:26:43.049Z,15.70
2022-10-31T16:29:28.240Z,15.60
2022-10-31T16:31:57.860Z,15.50
2022-10-31T16:34:27.111Z,15.50
2022-10-31T16:36:55.763Z,15.50
2022-10-31T16:39:24.166Z,15.50
2022-10-31T16:41:54.263Z,15.40
2022-10-31T16:44:25.743Z,15.30
2022-10-31T16:47:10.711Z,15.20
2022-10-31T16:49:39.099Z,15.10
2022-10-31T16:52:07.330Z,15.00
2022-10-31T16:54:35.646Z,14.80
2022-10-31T16:57:05.811Z,14.70
2022-10-31T16:59:35.254Z,14.60
2022-10-31T17:02:05.924Z,14.50
2022-10-31T17:04:34.234Z,14.40
2022-10-31T17:07:02.350Z,14.30
2022-10-31T17:09:30.500Z,14.20
2022-10-31T17:11:58.861Z,14.10
2022-10-31T17:14:27.466Z,14.00
2022-10-31T17:16:58.584Z,13.90
2022-10-31T17:19:28.195Z,13.90
2022-10-31T17:21:56.414Z,13.80
2022-10-31T17:24:24.566Z,13.70
2022-10-31T17:26:52.790Z,13.60
2022-10-31T17:29:20.952Z,13.50
2022-10-31T17:31:49.349Z,13.50
2022-10-31T17:34:19.066Z,13.50
2022-10-31T17:36:53.611Z,13.50
2022-10-31T17:39:21.982Z,13.50
2022-10-31T17:41:52.362Z,13.50
2022-10-31T17:44:20.893Z,13.50
2022-10-31T17:46:49.060Z,13.50
2022-10-31T17:49:17.278Z,13.50
2022-10-31T17:51:45.473Z,13.40
2022-10-31T17:54:18.401Z,13.40
2022-10-31T17:56:46.505Z,13.30
2022-10-31T17:59:14.699Z,13.30
2022-10-31T18:01:43.596Z,13.30
2022-10-31T18:04:12.060Z,13.30
2022-10-31T18:06:40.292Z,13.30
2022-10-31T18:09:08.465Z,13.30
2022-10-31T18:11:37.993Z,13.30
2022-10-31T18:14:06.123Z,13.20
2022-10-31T18:16:34.340Z,13.10
2022-10-31T18:19:02.888Z,13.00
2022-10-31T18:21:31.224Z,12.90
2022-10-31T18:24:02.018Z,12.70
2022-10-31T18:26:30.779Z,12.70
2022-10-31T18:29:00.641Z,12.60
2022-10-31T18:31:28.951Z,12.60
2022-10-31T18:33:58.005Z,12.60
2022-10-31T18:36:27.143Z,12.60
2022-10-31T18:38:55.356Z,12.50
2022-10-31T18:41:23.455Z,12.50
2022-10-31T18:43:53.751Z,12.40
2022-10-31T18:46:23.360Z,12.40
2022-10-31T18:48:51.587Z,12.30
2022-10-31T18:51:19.986Z,12.30
2022-10-31T18:53:52.634Z,12.20
2022-10-31T18:56:21.507Z,12.10
2022-10-31T18:58:49.849Z,12.20
2022-10-31T19:01:19.235Z,12.10
2022-10-31T19:03:53.994Z,12.10
2022-10-31T19:06:22.158Z,12.10
2022-10-31T19:08:50.368Z,12.10
2022-10-31T19:11:18.583Z,12.10
2022-10-31T19:13:46.784Z,12.00
2022-10-31T19:16:17.273Z,12.00
2022-10-31T19:18:45.887Z,11.90
2022-10-31T19:21:17.417Z,11.80
2022-10-31T19:23:46.531Z,11.70
2022-10-31T19:26:15.766Z,11.70
2022-10-31T19:28:44.052Z,11.60
2022-10-31T19:31:12.877Z,11.50
2022-10-31T19:33:41.223Z,11.40
2022-10-31T19:36:12.204Z,11.40
2022-10-31T19:38:43.992Z,11.40
2022-10-31T19:41:14.047Z,11.40
2022-10-31T19:43:42.494Z,11.30
2022-10-31T19:46:22.486Z,11.30
2022-10-31T19:48:57.248Z,11.20
2022-10-31T19:51:25.483Z,11.20
2022-10-31T19:53:55.188Z,11.20
2022-10-31T19:56:24.811Z,11.20
2022-10-31T19:58:53.346Z,11.10
2022-10-31T20:01:23.072Z,11.10
2022-10-31T20:03:51.611Z,11.10
2022-10-31T20:06:23.485Z,11.10
2022-10-31T20:08:52.413Z,11.00
2022-10-31T20:11:22.125Z,10.90
2022-10-31T20:13:50.311Z,10.90
2022-10-31T20:16:19.262Z,10.80
2022-10-31T20:18:47.993Z,10.80
2022-10-31T20:21:18.335Z,10.80
2022-10-31T20:23:47.676Z,10.70
2022-10-31T20:26:17.827Z,10.70
2022-10-31T20:28:47.851Z,10.60
2022-10-31T20:31:18.221Z,10.60
2022-10-31T20:33:46.440Z,10.50
2022-10-31T20:36:15.530Z,10.50
2022-10-31T20:38:43.991Z,10.40
2022-10-31T20:41:12.925Z,10.40
2022-10-31T20:43:41.297Z,10.40
2022-10-31T20:46:13.499Z,10.50
2022-10-31T20:48:42.599Z,10.50
2022-10-31T20:53:42.486Z,10.50
2022-10-31T20:56:13.064Z,10.40
2022-10-31T20:58:42.634Z,10.30
2022-10-31T21:01:15.688Z,10.40
2022-10-31T21:03:46.221Z,10.40
2022-10-31T21:06:15.331Z,10.40
2022-10-31T21:08:44.447Z,10.40
2022-10-31T21:11:15.710Z,10.30
2022-10-31T21:13:45.861Z,10.20
2022-10-31T21:16:17.158Z,10.20
2022-10-31T21:18:46.508Z,10.10
2022-10-31T21:21:16.619Z,10.00
2022-10-31T21:23:45.315Z,10.00
2022-10-31T21:26:15.638Z,10.00
2022-10-31T21:28:44.300Z,9.90
2022-10-31T21:31:14.331Z,9.80
2022-10-31T21:33:44.272Z,9.80
2022-10-31T21:36:12.945Z,9.70
2022-10-31T21:38:41.213Z,9.70
2022-10-31T21:41:11.397Z,9.70
2022-10-31T21:43:41.852Z,9.70
2022-10-31T21:46:11.977Z,9.70
2022-10-31T21:48:42.207Z,9.70
2022-10-31T21:51:13.399Z,9.70
2022-10-31T21:54:10.825Z,9.70
2022-10-31T21:56:39.365Z,9.70
2022-10-31T21:59:08.059Z,9.70
2022-10-31T22:01:37.025Z,9.70
2022-10-31T22:04:05.840Z,9.70
2022-10-31T22:06:36.384Z,9.70
2022-10-31T22:09:06.663Z,9.70
2022-10-31T22:11:35.370Z,9.70
2022-10-31T22:14:04.736Z,9.80
2022-10-31T22:16:35.794Z,9.80
2022-10-31T22:19:06.092Z,9.80
2022-10-31T22:21:40.352Z,9.80
2022-10-31T22:24:09.525Z,9.80
2022-10-31T22:26:38.801Z,9.80
2022-10-31T22:29:10.812Z,9.90
2022-10-31T22:31:41.197Z,10.00
2022-10-31T22:34:10.479Z,10.00
2022-10-31T22:36:40.333Z,10.00
2022-10-31T22:39:08.985Z,10.00
2022-10-31T22:41:38.015Z,10.00
2022-10-31T22:44:07.027Z,10.00
2022-10-31T22:46:36.861Z,10.00
2022-10-31T22:49:07.346Z,10.00
2022-10-31T22:51:38.010Z,10.00
2022-10-31T22:54:11.081Z,10.00
2022-10-31T22:56:39.332Z,10.00
2022-10-31T22:59:07.589Z,10.10
2022-10-31T23:01:35.961Z,10.10
2022-10-31T23:04:04.441Z,10.00
2022-10-31T23:06:34.409Z,10.00
2022-10-31T23:09:04.502Z,10.00
2022-10-31T23:11:35.804Z,10.00
2022-10-31T23:14:13.667Z,10.00
2022-10-31T23:16:47.455Z,10.10
2022-10-31T23:19:18.663Z,10.20
2022-10-31T23:21:59.669Z,10.20
2022-10-31T23:24:30.890Z,10.20
2022-10-31T23:27:09.526Z,10.20
2022-10-31T23:29:44.392Z,10.20
2022-10-31T23:32:16.304Z,10.20
2022-10-31T23:34:46.016Z,10.10
2022-10-31T23:37:15.406Z,10.10
2022-10-31T23:39:43.661Z,10.00
2022-10-31T23:42:13.777Z,10.10
2022-10-31T23:44:42.048Z,10.10
2022-10-31T23:47:10.370Z,10.10
2022-10-31T23:49:39.001Z,10.10
2022-10-31T23:52:08.343Z,10.10
2022-10-31T23:54:36.634Z,10.10
2022-10-31T23:57:05.277Z,10.00
2022-10-31T23:59:34.892Z,10.00
